createdAt,value
2019-01-24T00:00:19.172Z,100416.42
2019-01-24T00:02:47.915Z,100412.31
2019-01-24T00:05:16.617Z,100409.95
2019-01-24T00:07:45.252Z,100419.02
2019-01-24T00:10:13.983Z,100421.25
2019-01-24T00:12:43.019Z,100417.34
2019-01-24T00:15:12.382Z,100419.09
2019-01-24T00:17:41.371Z,100424.95
2019-01-24T00:20:14.995Z,100426.25
2019-01-24T00:22:43.552Z,100422.20
2019-01-24T00:25:12.569Z,100423.68
2019-01-24T00:27:41.180Z,100428.91
2019-01-24T00:30:15.899Z,100425.74
2019-01-24T00:32:44.735Z,100431.80
2019-01-24T00:35:14.085Z,100432.30
2019-01-24T00:37:42.659Z,100429.11
2019-01-24T00:40:22.076Z,100430.06
2019-01-24T00:42:51.157Z,100438.42
2019-01-24T00:45:19.771Z,100441.23
2019-01-24T00:47:48.368Z,100446.73
2019-01-24T00:50:17.443Z,100446.30
2019-01-24T00:52:46.192Z,100444.77
2019-01-24T00:55:15.707Z,100443.72
2019-01-24T00:57:44.911Z,100447.81
2019-01-24T01:00:25.314Z,100439.72
2019-01-24T01:02:54.511Z,100444.45
2019-01-24T01:05:23.609Z,100446.35
2019-01-24T01:07:52.271Z,100456.12
2019-01-24T01:10:21.343Z,100449.23
2019-01-24T01:12:49.881Z,100456.20
2019-01-24T01:15:19.470Z,100459.59
2019-01-24T01:17:48.328Z,100456.45
2019-01-24T01:20:19.161Z,100461.80
2019-01-24T01:22:48.262Z,100464.48
2019-01-24T01:25:17.396Z,100467.36
2019-01-24T01:27:46.236Z,100466.72
2019-01-24T01:30:19.962Z,100467.61
2019-01-24T01:32:48.908Z,100472.28
2019-01-24T01:35:18.076Z,100474.14
2019-01-24T01:37:47.378Z,100476.44
2019-01-24T01:40:19.052Z,100483.39
2019-01-24T01:42:47.952Z,100478.80
2019-01-24T01:45:18.666Z,100485.38
2019-01-24T01:47:47.401Z,100484.34
2019-01-24T01:50:20.979Z,100486.19
2019-01-24T01:52:49.707Z,100479.38
2019-01-24T01:55:18.712Z,100478.48
2019-01-24T01:57:47.376Z,100479.11
2019-01-24T02:00:21.426Z,100482.37
2019-01-24T02:02:50.080Z,100475.59
2019-01-24T02:05:18.780Z,100483.59
2019-01-24T02:07:47.728Z,100480.50
2019-01-24T02:10:21.325Z,100480.20
2019-01-24T02:12:50.048Z,100485.05
2019-01-24T02:15:19.419Z,100482.25
2019-01-24T02:17:48.456Z,100486.27
2019-01-24T02:20:19.293Z,100478.33
2019-01-24T02:22:48.046Z,100478.88
2019-01-24T02:25:16.747Z,100474.94
2019-01-24T02:27:45.375Z,100467.50
2019-01-24T02:30:23.026Z,100470.77
2019-01-24T02:32:51.795Z,100471.82
2019-01-24T02:35:20.324Z,100471.56
2019-01-24T02:37:48.928Z,100473.02
2019-01-24T02:40:17.568Z,100477.67
2019-01-24T02:42:46.224Z,100472.89
2019-01-24T02:45:17.798Z,100472.33
2019-01-24T02:47:46.748Z,100485.36
2019-01-24T02:50:17.668Z,100485.59
2019-01-24T02:52:46.408Z,100484.14
2019-01-24T02:55:16.390Z,100489.08
2019-01-24T02:57:45.352Z,100483.27
2019-01-24T03:00:23.998Z,100487.67
2019-01-24T03:02:53.232Z,100493.81
2019-01-24T03:05:23.287Z,100492.03
2019-01-24T03:07:52.766Z,100497.75
2019-01-24T03:10:21.380Z,100489.55
2019-01-24T03:12:50.155Z,100490.01
2019-01-24T03:15:20.804Z,100492.50
2019-01-24T03:17:50.699Z,100486.14
2019-01-24T03:20:20.077Z,100489.66
2019-01-24T03:22:48.899Z,100484.70
2019-01-24T03:25:18.440Z,100488.11
2019-01-24T03:27:46.983Z,100497.87
2019-01-24T03:30:22.134Z,100493.52
2019-01-24T03:32:50.958Z,100493.48
2019-01-24T03:35:22.157Z,100491.64
2019-01-24T03:37:51.068Z,100486.58
2019-01-24T03:40:19.750Z,100495.95
2019-01-24T03:42:48.736Z,100496.08
2019-01-24T03:45:18.310Z,100495.06
2019-01-24T03:47:47.216Z,100495.54
2019-01-24T03:50:21.038Z,100506.12
2019-01-24T03:52:50.780Z,100507.14
2019-01-24T03:55:20.851Z,100505.99
2019-01-24T03:57:50.166Z,100510.77
2019-01-24T04:00:23.939Z,100504.98
2019-01-24T04:02:53.172Z,100507.94
2019-01-24T04:05:21.769Z,100511.45
2019-01-24T04:07:50.521Z,100508.56
2019-01-24T04:10:20.784Z,100508.36
2019-01-24T04:12:50.068Z,100512.80
2019-01-24T04:15:21.016Z,100513.54
2019-01-24T04:17:49.591Z,100518.59
2019-01-24T04:20:18.358Z,100528.55
2019-01-24T04:22:46.956Z,100522.09
2019-01-24T04:25:15.799Z,100523.31
2019-01-24T04:27:44.432Z,100533.47
2019-01-24T04:30:21.297Z,100526.77
2019-01-24T04:32:50.156Z,100520.02
2019-01-24T04:35:19.987Z,100535.14
2019-01-24T04:37:49.070Z,100537.88
2019-01-24T04:40:19.361Z,100522.94
2019-01-24T04:42:48.149Z,100521.22
2019-01-24T04:45:17.994Z,100525.31
2019-01-24T04:47:46.679Z,100534.23
2019-01-24T04:50:17.558Z,100527.34
2019-01-24T04:52:47.056Z,100531.89
2019-01-24T04:55:18.027Z,100536.81
2019-01-24T04:57:46.693Z,100537.63
2019-01-24T05:00:21.129Z,100542.55
2019-01-24T05:02:49.776Z,100551.38
2019-01-24T05:05:18.331Z,100546.84
2019-01-24T05:07:47.145Z,100559.95
2019-01-24T05:10:15.660Z,100552.50
2019-01-24T05:12:45.560Z,100562.73
2019-01-24T05:15:14.707Z,100567.41
2019-01-24T05:17:43.254Z,100561.39
2019-01-24T05:20:13.684Z,100558.33
2019-01-24T05:22:42.340Z,100557.64
2019-01-24T05:25:13.500Z,100569.90
2019-01-24T05:27:42.069Z,100567.09
2019-01-24T05:30:14.545Z,100573.99
2019-01-24T05:32:43.137Z,100574.83
2019-01-24T05:35:11.665Z,100574.91
2019-01-24T05:37:40.250Z,100573.92
2019-01-24T05:40:09.887Z,100577.12
2019-01-24T05:42:38.459Z,100574.98
2019-01-24T05:45:10.160Z,100574.12
2019-01-24T05:47:38.822Z,100584.57
2019-01-24T05:50:10.463Z,100588.37
2019-01-24T05:52:39.003Z,100583.63
2019-01-24T05:55:09.784Z,100591.94
2019-01-24T05:57:38.492Z,100584.53
2019-01-24T06:00:17.445Z,100592.78
2019-01-24T06:02:46.510Z,100587.37
2019-01-24T06:05:15.839Z,100583.14
2019-01-24T06:07:44.805Z,100585.59
2019-01-24T06:10:17.920Z,100601.19
2019-01-24T06:12:46.650Z,100596.23
2019-01-24T06:15:18.711Z,100602.81
2019-01-24T06:17:47.642Z,100606.63
2019-01-24T06:20:16.415Z,100604.55
2019-01-24T06:22:45.369Z,100606.66
2019-01-24T06:25:15.391Z,100607.57
2019-01-24T06:27:44.139Z,100615.33
2019-01-24T06:30:17.979Z,100616.14
2019-01-24T06:32:46.873Z,100617.91
2019-01-24T06:35:15.587Z,100616.05
2019-01-24T06:37:44.262Z,100622.11
2019-01-24T06:40:14.911Z,100626.67
2019-01-24T06:42:44.248Z,100627.39
2019-01-24T06:45:21.022Z,100626.27
2019-01-24T06:47:49.686Z,100634.49
2019-01-24T06:50:19.735Z,100640.80
2019-01-24T06:52:48.395Z,100644.63
2019-01-24T06:55:22.823Z,100641.20
2019-01-24T06:57:51.393Z,100640.39
2019-01-24T07:00:20.851Z,100638.84
2019-01-24T07:02:49.890Z,100644.22
2019-01-24T07:05:18.854Z,100647.40
2019-01-24T07:07:47.546Z,100653.38
2019-01-24T07:10:18.230Z,100653.18
2019-01-24T07:12:46.977Z,100650.70
2019-01-24T07:15:17.868Z,100651.31
2019-01-24T07:17:46.498Z,100649.16
2019-01-24T07:20:17.147Z,100653.39
2019-01-24T07:22:45.748Z,100657.42
2019-01-24T07:25:20.485Z,100654.82
2019-01-24T07:27:49.195Z,100659.88
2019-01-24T07:30:19.483Z,100667.41
2019-01-24T07:32:48.358Z,100662.38
2019-01-24T07:35:18.497Z,100665.05
2019-01-24T07:37:47.169Z,100665.56
2019-01-24T07:40:18.010Z,100670.81
2019-01-24T07:42:46.822Z,100673.30
2019-01-24T07:45:18.641Z,100679.08
2019-01-24T07:47:47.600Z,100694.27
2019-01-24T07:50:16.215Z,100685.89
2019-01-24T07:52:44.901Z,100693.94
2019-01-24T07:55:14.369Z,100697.97
2019-01-24T07:57:43.682Z,100692.70
2019-01-24T08:00:17.999Z,100695.39
2019-01-24T08:02:48.770Z,100695.70
2019-01-24T08:05:18.076Z,100693.02
2019-01-24T08:07:46.934Z,100700.45
2019-01-24T08:10:18.425Z,100698.69
2019-01-24T08:12:47.783Z,100705.48
2019-01-24T08:15:18.514Z,100698.05
2019-01-24T08:17:47.247Z,100694.96
2019-01-24T08:20:18.624Z,100699.83
2019-01-24T08:22:47.361Z,100702.20
2019-01-24T08:25:16.543Z,100699.52
2019-01-24T08:27:45.761Z,100708.37
2019-01-24T08:30:22.975Z,100706.73
2019-01-24T08:32:51.704Z,100710.26
2019-01-24T08:35:20.732Z,100706.02
2019-01-24T08:37:49.535Z,100712.55
2019-01-24T08:40:20.320Z,100707.27
2019-01-24T08:42:49.258Z,100710.55
2019-01-24T08:45:18.986Z,100712.30
2019-01-24T08:47:47.737Z,100722.33
2019-01-24T08:50:24.660Z,100719.76
2019-01-24T08:52:53.374Z,100717.80
2019-01-24T08:55:30.275Z,100725.34
2019-01-24T08:57:59.059Z,100722.66
2019-01-24T09:00:28.076Z,100727.20
2019-01-24T09:02:56.825Z,100721.00
2019-01-24T09:05:25.852Z,100721.30
2019-01-24T09:07:55.155Z,100719.25
2019-01-24T09:10:29.967Z,100718.25
2019-01-24T09:12:58.720Z,100722.74
2019-01-24T09:15:27.474Z,100720.78
2019-01-24T09:17:56.211Z,100724.56
2019-01-24T09:20:24.794Z,100724.52
2019-01-24T09:22:55.359Z,100732.66
2019-01-24T09:25:24.155Z,100733.80
2019-01-24T09:27:55.270Z,100736.69
2019-01-24T09:30:28.874Z,100732.66
2019-01-24T09:32:57.522Z,100733.48
2019-01-24T09:35:26.166Z,100733.80
2019-01-24T09:37:54.878Z,100736.36
2019-01-24T09:40:25.022Z,100738.13
2019-01-24T09:42:53.684Z,100740.59
2019-01-24T09:45:25.509Z,100745.45
2019-01-24T09:47:55.651Z,100744.92
2019-01-24T09:50:25.971Z,100735.65
2019-01-24T09:52:55.358Z,100737.59
2019-01-24T09:55:24.197Z,100740.00
2019-01-24T09:57:52.890Z,100740.39
2019-01-24T10:00:30.364Z,100744.63
2019-01-24T10:02:59.078Z,100739.38
2019-01-24T10:05:28.061Z,100736.08
2019-01-24T10:07:57.142Z,100746.59
2019-01-24T10:10:27.505Z,100743.91
2019-01-24T10:12:57.474Z,100749.09
2019-01-24T10:15:27.413Z,100749.48
2019-01-24T10:17:56.488Z,100747.84
2019-01-24T10:20:27.120Z,100750.02
2019-01-24T10:22:56.271Z,100745.55
2019-01-24T10:25:27.871Z,100750.83
2019-01-24T10:27:57.247Z,100757.76
2019-01-24T10:30:26.888Z,100756.73
2019-01-24T10:32:58.242Z,100762.67
2019-01-24T10:35:26.922Z,100762.91
2019-01-24T10:37:57.094Z,100759.83
2019-01-24T10:40:28.371Z,100758.34
2019-01-24T10:42:57.791Z,100760.70
2019-01-24T10:45:26.809Z,100754.85
2019-01-24T10:47:55.978Z,100759.27
2019-01-24T10:50:26.691Z,100767.48
2019-01-24T10:52:55.307Z,100761.24
2019-01-24T10:55:26.353Z,100766.42
2019-01-24T10:57:56.857Z,100760.84
2019-01-24T11:00:28.563Z,100761.98
2019-01-24T11:02:58.383Z,100755.98
2019-01-24T11:05:27.100Z,100749.69
2019-01-24T11:07:56.021Z,100754.12
2019-01-24T11:10:24.905Z,100758.28
2019-01-24T11:12:54.710Z,100763.86
2019-01-24T11:15:24.662Z,100749.99
2019-01-24T11:17:53.563Z,100758.05
2019-01-24T11:20:22.715Z,100754.55
2019-01-24T11:22:51.943Z,100754.64
2019-01-24T11:25:26.021Z,100761.67
2019-01-24T11:27:54.776Z,100762.80
2019-01-24T11:30:28.741Z,100752.79
2019-01-24T11:32:57.390Z,100756.10
2019-01-24T11:35:31.371Z,100756.73
2019-01-24T11:38:02.435Z,100765.28
2019-01-24T11:40:31.235Z,100765.08
2019-01-24T11:43:00.033Z,100763.03
2019-01-24T11:45:32.211Z,100753.42
2019-01-24T11:48:01.356Z,100753.82
2019-01-24T11:50:30.143Z,100756.42
2019-01-24T11:52:58.863Z,100760.24
2019-01-24T11:55:27.716Z,100759.22
2019-01-24T11:57:56.656Z,100752.80
2019-01-24T12:00:34.780Z,100748.63
2019-01-24T12:03:03.574Z,100753.20
2019-01-24T12:05:32.774Z,100755.26
2019-01-24T12:08:01.696Z,100758.78
2019-01-24T12:10:31.635Z,100753.83
2019-01-24T12:13:00.430Z,100751.45
2019-01-24T12:15:30.988Z,100752.18
2019-01-24T12:17:59.917Z,100755.06
2019-01-24T12:20:29.057Z,100748.34
2019-01-24T12:22:59.058Z,100755.47
2019-01-24T12:25:28.037Z,100752.39
2019-01-24T12:27:56.927Z,100753.73
2019-01-24T12:30:28.801Z,100751.98
2019-01-24T12:32:58.325Z,100748.63
2019-01-24T12:35:27.492Z,100743.28
2019-01-24T12:37:56.557Z,100742.53
2019-01-24T12:40:25.386Z,100744.02
2019-01-24T12:42:54.171Z,100744.78
2019-01-24T12:45:25.532Z,100745.13
2019-01-24T12:47:54.755Z,100748.23
2019-01-24T12:50:23.826Z,100746.27
2019-01-24T12:52:53.154Z,100750.93
2019-01-24T12:55:23.889Z,100754.21
2019-01-24T12:57:53.070Z,100754.59
2019-01-24T13:00:27.902Z,100750.20
2019-01-24T13:02:57.010Z,100753.51
2019-01-24T13:05:25.856Z,100757.28
2019-01-24T13:07:54.714Z,100750.46
2019-01-24T13:10:26.524Z,100755.48
2019-01-24T13:12:56.638Z,100755.23
2019-01-24T13:15:30.479Z,100752.81
2019-01-24T13:17:59.447Z,100750.12
2019-01-24T13:20:28.278Z,100750.52
2019-01-24T13:22:57.284Z,100752.56
2019-01-24T13:25:31.288Z,100754.95
2019-01-24T13:27:59.964Z,100752.70
2019-01-24T13:30:33.289Z,100751.24
2019-01-24T13:33:02.553Z,100751.69
2019-01-24T13:35:31.326Z,100750.88
2019-01-24T13:38:00.096Z,100744.36
2019-01-24T13:40:30.357Z,100748.25
2019-01-24T13:43:00.292Z,100749.05
2019-01-24T13:45:31.393Z,100750.83
2019-01-24T13:48:00.535Z,100759.64
2019-01-24T13:50:29.384Z,100756.56
2019-01-24T13:52:58.300Z,100754.39
2019-01-24T13:55:27.041Z,100757.59
2019-01-24T13:57:56.246Z,100763.50
2019-01-24T14:00:33.205Z,100763.73
2019-01-24T14:03:05.627Z,100766.41
2019-01-24T14:05:34.578Z,100772.34
2019-01-24T14:08:03.889Z,100766.70
2019-01-24T14:10:32.884Z,100766.28
2019-01-24T14:13:01.934Z,100774.96
2019-01-24T14:15:30.763Z,100780.33
2019-01-24T14:17:59.766Z,100779.59
2019-01-24T14:20:28.617Z,100779.27
2019-01-24T14:22:59.561Z,100777.95
2019-01-24T14:25:28.592Z,100781.80
2019-01-24T14:27:57.499Z,100787.47
2019-01-24T14:30:29.881Z,100782.37
2019-01-24T14:33:00.149Z,100784.60
2019-01-24T14:35:29.282Z,100785.94
2019-01-24T14:37:58.974Z,100780.67
2019-01-24T14:40:28.300Z,100790.64
2019-01-24T14:42:57.170Z,100786.00
2019-01-24T14:45:28.957Z,100780.07
2019-01-24T14:47:58.141Z,100788.95
2019-01-24T14:50:29.879Z,100784.06
2019-01-24T14:52:59.075Z,100783.36
2019-01-24T14:55:28.292Z,100781.54
2019-01-24T14:57:57.369Z,100785.94
2019-01-24T15:00:35.248Z,100795.38
2019-01-24T15:03:04.699Z,100789.47
2019-01-24T15:05:33.619Z,100796.57
2019-01-24T15:08:02.593Z,100795.19
2019-01-24T15:10:32.006Z,100795.64
2019-01-24T15:13:01.294Z,100801.88
2019-01-24T15:15:30.251Z,100803.53
2019-01-24T15:17:59.846Z,100806.69
2019-01-24T15:20:30.792Z,100808.73
2019-01-24T15:23:00.373Z,100810.14
2019-01-24T15:25:29.660Z,100816.44
2019-01-24T15:27:59.172Z,100816.05
2019-01-24T15:30:30.565Z,100818.05
2019-01-24T15:33:01.380Z,100815.95
2019-01-24T15:35:31.473Z,100823.37
2019-01-24T15:38:00.464Z,100825.30
2019-01-24T15:40:32.343Z,100820.55
2019-01-24T15:43:01.581Z,100825.76
2019-01-24T15:45:31.378Z,100826.57
2019-01-24T15:48:00.688Z,100826.16
2019-01-24T15:50:29.934Z,100831.14
2019-01-24T15:52:59.063Z,100836.10
2019-01-24T15:55:28.059Z,100845.20
2019-01-24T15:57:57.377Z,100838.67
2019-01-24T16:00:34.246Z,100843.95
2019-01-24T16:03:03.765Z,100849.34
2019-01-24T16:05:33.621Z,100851.37
2019-01-24T16:08:02.447Z,100853.25
2019-01-24T16:10:31.689Z,100857.91
2019-01-24T16:13:00.609Z,100872.50
2019-01-24T16:15:37.321Z,100866.92
2019-01-24T16:18:08.015Z,100866.41
2019-01-24T16:20:36.923Z,100866.69
2019-01-24T16:23:06.107Z,100868.94
2019-01-24T16:25:36.764Z,100873.28
2019-01-24T16:28:06.275Z,100872.33
2019-01-24T16:30:36.127Z,100876.53
2019-01-24T16:33:07.010Z,100871.86
2019-01-24T16:35:36.145Z,100878.34
2019-01-24T16:38:09.629Z,100883.25
2019-01-24T16:40:38.364Z,100878.84
2019-01-24T16:43:07.771Z,100878.14
2019-01-24T16:45:36.874Z,100870.90
2019-01-24T16:48:06.672Z,100865.16
2019-01-24T16:50:36.359Z,100863.63
2019-01-24T16:53:05.531Z,100867.66
2019-01-24T16:55:34.663Z,100872.52
2019-01-24T16:58:04.316Z,100878.84
2019-01-24T17:00:39.990Z,100881.06
2019-01-24T17:03:09.579Z,100882.23
2019-01-24T17:05:40.370Z,100885.59
2019-01-24T17:08:16.478Z,100880.91
2019-01-24T17:10:43.507Z,100885.26
2019-01-24T17:13:14.094Z,100888.09
2019-01-24T17:15:43.212Z,100891.80
2019-01-24T17:18:13.040Z,100884.42
2019-01-24T17:20:42.058Z,100880.30
2019-01-24T17:23:11.335Z,100891.27
2019-01-24T17:25:40.140Z,100890.27
2019-01-24T17:28:09.620Z,100891.77
2019-01-24T17:30:40.091Z,100888.78
2019-01-24T17:33:09.644Z,100890.95
2019-01-24T17:35:38.876Z,100883.42
2019-01-24T17:38:08.596Z,100883.76
2019-01-24T17:40:37.723Z,100883.42
2019-01-24T17:43:07.485Z,100880.64
2019-01-24T17:45:36.925Z,100876.03
2019-01-24T17:48:07.016Z,100887.36
2019-01-24T17:50:35.843Z,100882.37
2019-01-24T17:53:05.116Z,100881.06
2019-01-24T17:55:40.586Z,100887.26
2019-01-24T17:58:11.794Z,100893.23
2019-01-24T18:00:42.696Z,100891.09
2019-01-24T18:03:12.234Z,100895.53
2019-01-24T18:05:41.205Z,100896.00
2019-01-24T18:08:10.380Z,100901.60
2019-01-24T18:10:39.343Z,100896.10
2019-01-24T18:13:08.611Z,100899.66
2019-01-24T18:15:38.127Z,100907.97
2019-01-24T18:18:10.607Z,100906.95
2019-01-24T18:20:39.591Z,100902.42
2019-01-24T18:23:09.970Z,100903.59
2019-01-24T18:25:39.435Z,100903.45
2019-01-24T18:28:10.278Z,100903.55
2019-01-24T18:30:39.665Z,100906.30
2019-01-24T18:33:09.490Z,100913.41
2019-01-24T18:35:38.872Z,100921.98
2019-01-24T18:38:08.080Z,100915.34
2019-01-24T18:40:37.483Z,100924.11
2019-01-24T18:43:09.586Z,100919.30
2019-01-24T18:45:41.615Z,100931.34
2019-01-24T18:48:11.306Z,100934.27
2019-01-24T18:50:40.776Z,100938.95
2019-01-24T18:53:10.525Z,100936.32
2019-01-24T18:55:39.920Z,100941.27
2019-01-24T18:58:09.224Z,100939.89
2019-01-24T19:00:40.145Z,100941.48
2019-01-24T19:03:10.321Z,100945.66
2019-01-24T19:05:39.678Z,100949.67
2019-01-24T19:08:10.657Z,100956.84
2019-01-24T19:10:40.138Z,100954.37
2019-01-24T19:13:09.572Z,100957.16
2019-01-24T19:15:38.606Z,100957.78
2019-01-24T19:18:09.244Z,100964.39
2019-01-24T19:20:38.569Z,100959.66
2019-01-24T19:23:07.805Z,100969.12
2019-01-24T19:25:37.185Z,100974.53
2019-01-24T19:28:06.159Z,100976.73
2019-01-24T19:30:35.294Z,100979.41
2019-01-24T19:33:04.750Z,100972.95
2019-01-24T19:35:33.895Z,100965.02
2019-01-24T19:38:04.416Z,100974.96
2019-01-24T19:40:34.435Z,100976.03
2019-01-24T19:43:03.700Z,100971.34
2019-01-24T19:45:33.125Z,100970.48
2019-01-24T19:48:04.970Z,100970.13
2019-01-24T19:50:35.203Z,100968.36
2019-01-24T19:53:05.536Z,100979.30
2019-01-24T19:55:34.620Z,100984.53
2019-01-24T19:58:05.529Z,100984.02
2019-01-24T20:00:34.582Z,100979.20
2019-01-24T20:03:05.177Z,100981.95
2019-01-24T20:05:34.702Z,100982.76
2019-01-24T20:08:03.817Z,100983.03
2019-01-24T20:10:33.135Z,100983.75
2019-01-24T20:13:02.161Z,100997.98
2019-01-24T20:15:33.812Z,100986.01
2019-01-24T20:18:06.518Z,100995.91
2019-01-24T20:20:37.636Z,100998.72
2019-01-24T20:23:07.432Z,101000.27
2019-01-24T20:25:36.364Z,101005.69
2019-01-24T20:28:07.128Z,101011.11
2019-01-24T20:30:36.950Z,101005.12
2019-01-24T20:33:06.371Z,100995.98
2019-01-24T20:35:38.062Z,101006.39
2019-01-24T20:38:10.372Z,101002.34
2019-01-24T20:40:39.487Z,100995.88
2019-01-24T20:43:10.397Z,100994.48
2019-01-24T20:45:39.961Z,100995.58
2019-01-24T20:48:10.591Z,100995.23
2019-01-24T20:50:39.472Z,101003.02
2019-01-24T20:53:09.506Z,100995.48
2019-01-24T20:55:38.915Z,101002.64
2019-01-24T20:58:07.898Z,100998.61
2019-01-24T21:00:36.795Z,101001.75
2019-01-24T21:03:06.712Z,101007.30
2019-01-24T21:05:35.562Z,101009.84
2019-01-24T21:08:04.791Z,101014.95
2019-01-24T21:10:34.830Z,101005.95
2019-01-24T21:13:03.578Z,101005.30
2019-01-24T21:15:33.296Z,101006.52
2019-01-24T21:18:02.417Z,101007.19
2019-01-24T21:20:33.650Z,101007.54
2019-01-24T21:23:02.454Z,101011.19
2019-01-24T21:25:31.417Z,101007.97
2019-01-24T21:28:00.125Z,101008.96
2019-01-24T21:30:34.784Z,101015.53
2019-01-24T21:33:06.470Z,101006.58
2019-01-24T21:35:35.396Z,101008.72
2019-01-24T21:38:05.491Z,101010.95
2019-01-24T21:40:34.291Z,101014.59
2019-01-24T21:43:03.006Z,101021.92
2019-01-24T21:45:36.977Z,101021.48
2019-01-24T21:48:07.407Z,101019.79
2019-01-24T21:50:36.403Z,101016.80
2019-01-24T21:53:05.910Z,101019.50
2019-01-24T21:55:35.296Z,101019.95
2019-01-24T21:58:04.903Z,101017.33
2019-01-24T22:00:34.629Z,101018.86
2019-01-24T22:03:04.051Z,101017.95
2019-01-24T22:05:32.840Z,101017.06
2019-01-24T22:08:01.817Z,101022.28
2019-01-24T22:10:31.316Z,101019.93
2019-01-24T22:13:04.893Z,101022.67
2019-01-24T22:15:38.626Z,101015.83
2019-01-24T22:18:09.050Z,101016.41
2019-01-24T22:20:37.926Z,101016.51
2019-01-24T22:23:07.230Z,101009.84
2019-01-24T22:25:36.121Z,101008.96
2019-01-24T22:28:05.254Z,101006.59
2019-01-24T22:30:46.642Z,101008.20
2019-01-24T22:33:15.870Z,101004.30
2019-01-24T22:35:46.237Z,101011.00
2019-01-24T22:38:15.615Z,101006.80
2019-01-24T22:40:44.381Z,101001.23
2019-01-24T22:43:13.128Z,101003.22
2019-01-24T22:45:41.815Z,100999.77
2019-01-24T22:48:11.226Z,100994.67
2019-01-24T22:50:41.938Z,100998.80
2019-01-24T22:53:10.612Z,100996.50
2019-01-24T22:55:39.544Z,100992.06
2019-01-24T22:58:08.401Z,100992.87
2019-01-24T23:00:51.117Z,100987.30
2019-01-24T23:03:25.505Z,100991.41
2019-01-24T23:05:54.143Z,100987.86
2019-01-24T23:08:23.227Z,100991.78
2019-01-24T23:10:51.934Z,100990.38
2019-01-24T23:13:20.541Z,100988.56
2019-01-24T23:15:49.227Z,100986.66
2019-01-24T23:18:17.889Z,100989.25
2019-01-24T23:20:46.983Z,100988.16
2019-01-24T23:23:15.653Z,100991.95
2019-01-24T23:25:44.248Z,100983.11
2019-01-24T23:28:13.095Z,100988.41
2019-01-24T23:30:41.812Z,100985.81
2019-01-24T23:33:10.428Z,100990.75
2019-01-24T23:35:39.159Z,100986.81
2019-01-24T23:38:07.799Z,100986.25
2019-01-24T23:40:36.551Z,100980.63
2019-01-24T23:43:05.761Z,100986.59
2019-01-24T23:45:34.404Z,100984.76
2019-01-24T23:48:03.027Z,100980.75
2019-01-24T23:50:31.662Z,100978.55
2019-01-24T23:53:00.194Z,100977.11
2019-01-24T23:55:29.013Z,100975.87
2019-01-24T23:57:58.646Z,100979.55
